createdAt,value
2019-05-19T00:02:13.032Z,81.53
2019-05-19T00:04:39.816Z,88.63
2019-05-19T00:07:06.502Z,89.60
2019-05-19T00:09:33.185Z,103.30
2019-05-19T00:11:59.839Z,98.10
2019-05-19T00:14:26.553Z,98.47
2019-05-19T00:16:53.227Z,98.30
2019-05-19T00:19:26.898Z,97.60
2019-05-19T00:21:48.690Z,83.43
2019-05-19T00:24:15.370Z,79.60
2019-05-19T00:26:43.149Z,87.40
2019-05-19T00:29:10.046Z,74.20
2019-05-19T00:31:36.729Z,71.30
2019-05-19T00:34:03.539Z,91.07
2019-05-19T00:36:30.286Z,79.30
2019-05-19T00:38:56.977Z,74.60
2019-05-19T00:41:23.771Z,76.07
2019-05-19T00:43:50.558Z,77.90
2019-05-19T00:46:17.325Z,71.23
2019-05-19T00:48:44.809Z,79.47
2019-05-19T00:51:11.835Z,70.70
2019-05-19T00:53:38.510Z,65.07
2019-05-19T00:56:05.320Z,66.07
2019-05-19T00:58:32.931Z,62.67
2019-05-19T01:00:59.753Z,69.47
2019-05-19T01:03:26.463Z,56.60
2019-05-19T01:05:53.244Z,49.73
2019-05-19T01:08:20.276Z,49.73
2019-05-19T01:10:47.045Z,54.53
2019-05-19T01:13:15.686Z,50.43
2019-05-19T01:15:42.608Z,60.53
2019-05-19T01:18:09.300Z,65.97
2019-05-19T01:20:36.084Z,47.93
2019-05-19T01:23:02.905Z,53.30
2019-05-19T01:25:29.660Z,53.33
2019-05-19T01:27:56.582Z,53.47
2019-05-19T01:30:23.731Z,44.33
2019-05-19T01:32:50.642Z,52.33
2019-05-19T01:35:17.321Z,45.13
2019-05-19T01:37:44.007Z,41.40
2019-05-19T01:40:11.912Z,54.70
2019-05-19T01:42:38.602Z,47.80
2019-05-19T01:45:05.610Z,60.00
2019-05-19T01:47:32.294Z,41.20
2019-05-19T01:50:16.547Z,49.80
2019-05-19T01:52:27.573Z,51.90
2019-05-19T01:54:54.271Z,44.83
2019-05-19T01:57:21.051Z,44.67
2019-05-19T01:59:47.762Z,43.00
2019-05-19T02:02:14.480Z,54.43
2019-05-19T02:04:41.293Z,50.33
2019-05-19T02:07:08.092Z,43.60
2019-05-19T02:09:34.910Z,44.93
2019-05-19T02:12:01.700Z,47.20
2019-05-19T02:14:28.452Z,43.23
2019-05-19T02:16:55.321Z,45.57
2019-05-19T02:19:22.182Z,49.57
2019-05-19T02:21:48.964Z,43.70
2019-05-19T02:24:15.765Z,45.30
2019-05-19T02:26:42.558Z,43.23
2019-05-19T02:29:09.350Z,47.83
2019-05-19T02:31:36.080Z,54.20
2019-05-19T02:34:03.066Z,65.73
2019-05-19T02:36:29.748Z,47.97
2019-05-19T02:38:56.459Z,44.90
2019-05-19T02:41:25.123Z,35.50
2019-05-19T02:43:52.443Z,42.30
2019-05-19T02:46:19.622Z,41.57
2019-05-19T02:48:46.532Z,40.00
2019-05-19T02:51:13.754Z,41.47
2019-05-19T02:53:42.419Z,43.60
2019-05-19T02:56:09.704Z,123.67
2019-05-19T02:58:36.808Z,39.03
2019-05-19T03:01:03.485Z,43.57
2019-05-19T03:03:30.212Z,52.03
2019-05-19T03:05:57.013Z,39.07
2019-05-19T03:08:23.706Z,39.27
2019-05-19T03:10:51.422Z,43.60
2019-05-19T03:13:18.113Z,35.43
2019-05-19T03:15:44.797Z,60.80
2019-05-19T03:18:11.493Z,88.33
2019-05-19T03:20:38.153Z,62.40
2019-05-19T03:23:04.830Z,51.43
2019-05-19T03:25:31.515Z,50.70
2019-05-19T03:27:58.323Z,37.60
2019-05-19T03:30:53.466Z,36.93
2019-05-19T03:33:23.517Z,38.10
2019-05-19T03:35:50.175Z,41.73
2019-05-19T03:38:16.858Z,37.20
2019-05-19T03:40:43.665Z,36.13
2019-05-19T03:43:10.637Z,33.37
2019-05-19T03:45:37.538Z,35.10
2019-05-19T03:48:04.426Z,39.30
2019-05-19T03:50:31.209Z,39.70
2019-05-19T03:52:58.136Z,33.70
2019-05-19T03:55:24.797Z,38.80
2019-05-19T03:57:51.475Z,48.17
2019-05-19T04:00:19.668Z,60.03
2019-05-19T04:02:46.364Z,36.27
2019-05-19T04:05:13.250Z,34.30
2019-05-19T04:07:40.303Z,42.90
2019-05-19T04:10:07.541Z,35.97
2019-05-19T04:12:34.328Z,40.43
2019-05-19T04:15:02.314Z,35.40
2019-05-19T04:17:29.084Z,35.70
2019-05-19T04:19:55.777Z,29.73
2019-05-19T04:22:22.813Z,29.20
2019-05-19T04:24:51.405Z,39.27
2019-05-19T04:27:18.115Z,33.03
2019-05-19T04:29:44.836Z,31.53
2019-05-19T04:32:11.490Z,29.00
2019-05-19T04:34:38.182Z,37.20
2019-05-19T04:37:05.150Z,27.53
2019-05-19T04:39:32.112Z,29.50
2019-05-19T04:41:58.807Z,68.30
2019-05-19T04:44:25.586Z,29.10
2019-05-19T04:46:52.414Z,30.23
2019-05-19T04:49:19.077Z,27.77
2019-05-19T04:51:45.766Z,28.23
2019-05-19T04:54:13.577Z,28.93
2019-05-19T04:56:40.258Z,30.43
2019-05-19T04:59:06.945Z,39.30
2019-05-19T05:01:33.634Z,34.00
2019-05-19T05:04:00.338Z,29.40
2019-05-19T05:06:27.058Z,33.17
2019-05-19T05:08:53.858Z,35.53
2019-05-19T05:11:20.520Z,34.43
2019-05-19T05:13:47.208Z,31.07
2019-05-19T05:16:14.984Z,84.97
2019-05-19T05:18:41.688Z,34.83
2019-05-19T05:21:08.654Z,35.53
2019-05-19T05:23:35.351Z,30.40
2019-05-19T05:26:02.052Z,36.20
2019-05-19T05:28:28.754Z,33.53
2019-05-19T05:30:55.511Z,29.80
2019-05-19T05:33:22.205Z,28.73
2019-05-19T05:35:48.986Z,25.67
2019-05-19T05:38:16.237Z,28.27
2019-05-19T05:40:42.928Z,27.53
2019-05-19T05:43:09.617Z,24.93
2019-05-19T05:45:36.316Z,30.00
2019-05-19T05:48:03.138Z,25.60
2019-05-19T05:50:29.818Z,22.97
2019-05-19T05:52:56.604Z,33.93
2019-05-19T05:55:23.402Z,30.20
2019-05-19T05:57:50.081Z,22.07
2019-05-19T06:00:17.082Z,32.43
2019-05-19T06:02:43.740Z,24.57
2019-05-19T06:05:10.615Z,25.80
2019-05-19T06:07:37.303Z,24.07
2019-05-19T06:10:04.961Z,23.90
2019-05-19T06:12:31.651Z,23.10
2019-05-19T06:14:58.370Z,23.07
2019-05-19T06:17:25.079Z,22.83
2019-05-19T06:19:51.838Z,27.07
2019-05-19T06:22:18.716Z,23.27
2019-05-19T06:24:45.388Z,28.43
2019-05-19T06:27:12.061Z,21.40
2019-05-19T06:29:38.847Z,23.33
2019-05-19T06:32:13.588Z,25.07
2019-05-19T06:34:40.278Z,22.87
2019-05-19T06:37:06.954Z,23.00
2019-05-19T06:39:33.623Z,20.37
2019-05-19T06:42:00.477Z,21.20
2019-05-19T06:44:27.217Z,20.20
2019-05-19T06:46:53.983Z,20.30
2019-05-19T06:49:20.756Z,20.70
2019-05-19T06:51:47.539Z,22.17
2019-05-19T06:54:14.234Z,21.90
2019-05-19T06:56:40.939Z,22.70
2019-05-19T06:59:07.600Z,23.43
2019-05-19T07:01:34.304Z,22.70
2019-05-19T07:04:00.961Z,25.50
2019-05-19T07:06:27.734Z,21.03
2019-05-19T07:08:55.818Z,23.53
2019-05-19T07:11:22.519Z,24.70
2019-05-19T07:13:49.292Z,18.97
2019-05-19T07:16:15.983Z,19.63
2019-05-19T07:18:42.673Z,19.07
2019-05-19T07:21:09.365Z,21.27
2019-05-19T07:23:37.273Z,22.57
2019-05-19T07:26:04.154Z,19.20
2019-05-19T07:28:30.941Z,19.60
2019-05-19T07:30:57.726Z,18.20
2019-05-19T07:33:24.405Z,20.97
2019-05-19T07:35:51.093Z,20.57
2019-05-19T07:38:17.897Z,22.37
2019-05-19T07:40:44.656Z,20.33
2019-05-19T07:43:11.422Z,19.67
2019-05-19T07:45:39.251Z,21.37
2019-05-19T07:48:05.971Z,21.10
2019-05-19T07:50:32.644Z,21.30
2019-05-19T07:53:12.366Z,21.57
2019-05-19T07:55:39.053Z,17.97
2019-05-19T07:58:05.832Z,22.77
2019-05-19T08:00:32.506Z,20.50
2019-05-19T08:02:59.242Z,27.43
2019-05-19T08:05:26.016Z,30.87
2019-05-19T08:07:52.687Z,35.87
2019-05-19T08:10:19.418Z,34.87
2019-05-19T08:12:46.062Z,24.13
2019-05-19T08:15:13.040Z,21.77
2019-05-19T08:17:39.803Z,23.50
2019-05-19T08:20:06.679Z,26.93
2019-05-19T08:22:34.566Z,21.00
2019-05-19T08:25:01.227Z,23.67
2019-05-19T08:27:27.899Z,22.07
2019-05-19T08:29:54.793Z,21.50
2019-05-19T08:32:21.582Z,22.00
2019-05-19T08:34:48.269Z,28.67
2019-05-19T08:37:15.148Z,42.23
2019-05-19T08:39:41.782Z,30.90
2019-05-19T08:42:08.461Z,20.23
2019-05-19T08:44:35.258Z,21.33
2019-05-19T08:47:01.985Z,24.40
2019-05-19T08:49:28.720Z,21.77
2019-05-19T08:51:55.468Z,23.93
2019-05-19T08:54:22.176Z,24.47
2019-05-19T08:56:49.393Z,19.30
2019-05-19T08:59:16.095Z,19.90
2019-05-19T09:01:42.759Z,20.77
2019-05-19T09:04:09.535Z,18.33
2019-05-19T09:06:36.230Z,19.80
2019-05-19T09:09:04.292Z,16.57
2019-05-19T09:11:31.182Z,20.70
2019-05-19T09:13:58.031Z,27.90
2019-05-19T09:16:24.682Z,26.83
2019-05-19T09:18:51.476Z,29.27
2019-05-19T09:21:18.159Z,57.43
2019-05-19T09:23:44.925Z,43.97
2019-05-19T09:26:11.623Z,34.50
2019-05-19T09:28:38.382Z,22.07
2019-05-19T09:31:05.187Z,22.20
2019-05-19T09:33:31.877Z,22.57
2019-05-19T09:35:58.655Z,23.60
2019-05-19T09:38:25.430Z,17.80
2019-05-19T09:40:52.115Z,33.47
2019-05-19T09:43:18.897Z,36.87
2019-05-19T09:45:45.693Z,44.43
2019-05-19T09:48:12.471Z,46.43
2019-05-19T09:50:39.252Z,33.87
2019-05-19T09:53:05.934Z,27.93
2019-05-19T09:55:32.662Z,46.87
2019-05-19T09:57:59.474Z,54.13
2019-05-19T10:00:26.403Z,33.57
2019-05-19T10:02:53.102Z,38.43
2019-05-19T10:05:20.296Z,40.37
2019-05-19T10:07:47.020Z,28.30
2019-05-19T10:10:16.687Z,35.90
2019-05-19T10:12:45.731Z,45.60
2019-05-19T10:15:13.488Z,21.63
2019-05-19T10:17:40.173Z,20.80
2019-05-19T10:20:07.568Z,20.90
2019-05-19T10:22:34.402Z,24.63
2019-05-19T10:25:20.387Z,45.77
2019-05-19T10:27:29.896Z,24.90
2019-05-19T10:29:56.563Z,27.80
2019-05-19T10:32:23.322Z,65.47
2019-05-19T10:34:50.251Z,59.53
2019-05-19T10:37:16.937Z,39.60
2019-05-19T10:39:43.839Z,24.70
2019-05-19T10:42:10.587Z,31.10
2019-05-19T10:44:37.406Z,41.40
2019-05-19T10:47:04.255Z,20.17
2019-05-19T10:49:31.019Z,28.53
2019-05-19T10:51:57.926Z,15.40
2019-05-19T10:54:24.703Z,19.97
2019-05-19T10:56:51.489Z,14.90
2019-05-19T10:59:18.295Z,14.10
2019-05-19T11:01:44.960Z,18.33
2019-05-19T11:04:11.745Z,14.30
2019-05-19T11:06:38.434Z,14.50
2019-05-19T11:09:06.124Z,12.43
2019-05-19T11:11:32.989Z,14.83
2019-05-19T11:13:59.682Z,17.03
2019-05-19T11:16:26.445Z,15.17
2019-05-19T11:18:53.210Z,13.80
2019-05-19T11:21:19.931Z,17.10
2019-05-19T11:23:46.782Z,13.60
2019-05-19T11:26:13.561Z,12.50
2019-05-19T11:28:40.257Z,12.50
2019-05-19T11:31:07.029Z,14.80
2019-05-19T11:33:33.686Z,13.73
2019-05-19T11:36:00.405Z,53.37
2019-05-19T11:38:27.076Z,103.93
2019-05-19T11:40:53.801Z,14.97
2019-05-19T11:43:20.442Z,37.67
2019-05-19T11:45:48.328Z,16.33
2019-05-19T11:48:15.027Z,17.93
2019-05-19T11:50:42.305Z,13.17
2019-05-19T11:53:09.179Z,23.73
2019-05-19T11:55:36.282Z,16.77
2019-05-19T11:58:02.973Z,19.27
2019-05-19T12:00:29.859Z,11.23
2019-05-19T12:02:56.530Z,12.00
2019-05-19T12:05:23.560Z,13.40
2019-05-19T12:07:50.912Z,14.57
2019-05-19T12:10:17.739Z,22.73
2019-05-19T12:12:44.438Z,14.33
2019-05-19T12:15:11.433Z,13.50
2019-05-19T12:17:38.094Z,18.97
2019-05-19T12:20:04.910Z,12.10
2019-05-19T12:22:31.699Z,13.27
2019-05-19T12:24:58.486Z,11.30
2019-05-19T12:27:25.289Z,12.30
2019-05-19T12:29:52.118Z,13.17
2019-05-19T12:32:18.867Z,10.80
2019-05-19T12:34:45.538Z,10.73
2019-05-19T12:37:12.239Z,12.33
2019-05-19T12:39:38.917Z,10.37
2019-05-19T12:42:05.757Z,12.50
2019-05-19T12:44:32.588Z,11.73
2019-05-19T12:46:59.284Z,13.33
2019-05-19T12:49:26.050Z,15.03
2019-05-19T12:51:52.953Z,13.10
2019-05-19T12:54:19.634Z,12.00
2019-05-19T12:56:46.306Z,12.90
2019-05-19T12:59:13.295Z,12.37
2019-05-19T13:01:40.515Z,11.83
2019-05-19T13:04:07.357Z,12.40
2019-05-19T13:06:34.042Z,19.50
2019-05-19T13:09:00.762Z,19.00
2019-05-19T13:11:27.459Z,28.83
2019-05-19T13:13:54.149Z,30.70
2019-05-19T13:16:20.932Z,21.40
2019-05-19T13:18:47.613Z,21.90
2019-05-19T13:21:14.403Z,13.50
2019-05-19T13:23:41.118Z,20.57
2019-05-19T13:26:07.906Z,12.37
2019-05-19T13:28:34.587Z,13.37
2019-05-19T13:31:01.262Z,13.20
2019-05-19T13:33:28.134Z,12.47
2019-05-19T13:35:54.797Z,11.43
2019-05-19T13:38:21.478Z,13.30
2019-05-19T13:40:48.260Z,13.60
2019-05-19T13:43:15.038Z,14.87
2019-05-19T13:45:42.859Z,12.57
2019-05-19T13:48:09.573Z,16.37
2019-05-19T13:50:36.246Z,14.90
2019-05-19T13:53:03.026Z,14.03
2019-05-19T13:55:30.018Z,13.20
2019-05-19T13:57:56.797Z,14.70
2019-05-19T14:00:23.595Z,14.10
2019-05-19T14:02:50.282Z,22.00
2019-05-19T14:05:17.081Z,15.57
2019-05-19T14:07:44.874Z,17.53
2019-05-19T14:10:12.070Z,16.77
2019-05-19T14:12:38.872Z,12.90
2019-05-19T14:15:05.872Z,12.57
2019-05-19T14:17:33.693Z,15.93
2019-05-19T14:20:00.598Z,17.73
2019-05-19T14:22:27.310Z,11.93
2019-05-19T14:24:53.974Z,11.10
2019-05-19T14:27:29.606Z,11.70
2019-05-19T14:29:49.344Z,12.57
2019-05-19T14:32:17.188Z,10.33
2019-05-19T14:34:44.080Z,12.53
2019-05-19T14:37:10.881Z,11.80
2019-05-19T14:39:37.662Z,10.60
2019-05-19T14:42:08.074Z,10.07
2019-05-19T14:44:34.761Z,12.60
2019-05-19T14:47:01.586Z,11.53
2019-05-19T14:49:28.385Z,12.60
2019-05-19T14:51:55.093Z,16.67
2019-05-19T14:54:21.809Z,19.00
2019-05-19T14:56:48.492Z,11.40
2019-05-19T14:59:15.164Z,22.90
2019-05-19T15:01:41.942Z,17.23
2019-05-19T15:04:08.610Z,18.43
2019-05-19T15:06:35.372Z,18.60
2019-05-19T15:09:02.243Z,14.50
2019-05-19T15:11:30.362Z,12.33
2019-05-19T15:13:57.061Z,15.00
2019-05-19T15:16:23.776Z,16.23
2019-05-19T15:18:50.467Z,12.83
2019-05-19T15:21:17.167Z,15.13
2019-05-19T15:23:43.900Z,16.10
2019-05-19T15:26:10.590Z,26.43
2019-05-19T15:28:37.294Z,44.97
2019-05-19T15:31:04.027Z,35.23
2019-05-19T15:33:37.697Z,29.90
2019-05-19T15:35:59.313Z,18.50
2019-05-19T15:38:26.334Z,21.73
2019-05-19T15:40:53.039Z,18.80
2019-05-19T15:43:19.807Z,16.43
2019-05-19T15:45:46.477Z,18.23
2019-05-19T15:48:14.203Z,15.40
2019-05-19T15:50:40.878Z,17.83
2019-05-19T15:53:07.560Z,16.70
2019-05-19T15:55:34.341Z,13.40
2019-05-19T15:58:15.566Z,13.90
2019-05-19T16:00:29.686Z,15.90
2019-05-19T16:02:56.531Z,13.80
2019-05-19T16:05:23.243Z,14.27
2019-05-19T16:07:49.920Z,14.77
2019-05-19T16:10:16.713Z,20.40
2019-05-19T16:12:43.405Z,11.90
2019-05-19T16:15:10.385Z,14.17
2019-05-19T16:17:37.074Z,18.43
2019-05-19T16:20:05.060Z,13.33
2019-05-19T16:22:31.733Z,17.60
2019-05-19T16:24:58.398Z,15.23
2019-05-19T16:27:25.351Z,14.10
2019-05-19T16:29:52.107Z,35.80
2019-05-19T16:32:18.942Z,14.97
2019-05-19T16:34:45.636Z,48.30
2019-05-19T16:37:12.328Z,28.20
2019-05-19T16:39:38.986Z,67.87
2019-05-19T16:42:05.862Z,33.50
2019-05-19T16:44:32.632Z,18.10
2019-05-19T16:46:59.505Z,30.40
2019-05-19T16:49:26.193Z,15.87
2019-05-19T16:51:53.121Z,14.33
2019-05-19T16:54:24.959Z,17.80
2019-05-19T16:56:52.019Z,15.63
2019-05-19T16:59:19.190Z,16.43
2019-05-19T17:01:45.911Z,15.37
2019-05-19T17:04:12.779Z,16.77
2019-05-19T17:06:41.391Z,12.40
2019-05-19T17:09:08.573Z,14.63
2019-05-19T17:11:35.975Z,16.37
2019-05-19T17:14:03.070Z,13.57
2019-05-19T17:16:29.755Z,20.53
2019-05-19T17:18:56.407Z,56.13
2019-05-19T17:21:24.356Z,70.90
2019-05-19T17:23:51.569Z,35.70
2019-05-19T17:26:18.199Z,43.10
2019-05-19T17:28:59.579Z,33.70
2019-05-19T17:31:13.754Z,32.00
2019-05-19T17:33:41.605Z,34.77
2019-05-19T17:36:08.912Z,21.57
2019-05-19T17:38:35.838Z,64.13
2019-05-19T17:41:02.616Z,28.60
2019-05-19T17:43:29.396Z,27.33
2019-05-19T17:45:56.147Z,34.43
2019-05-19T17:48:26.615Z,24.27
2019-05-19T17:50:51.531Z,30.37
2019-05-19T17:53:18.523Z,58.50
2019-05-19T17:55:45.498Z,23.73
2019-05-19T17:58:12.285Z,46.83
2019-05-19T18:00:39.785Z,65.60
2019-05-19T18:03:09.206Z,26.37
2019-05-19T18:05:36.142Z,43.83
2019-05-19T18:08:03.139Z,20.03
2019-05-19T18:10:29.934Z,21.23
2019-05-19T18:12:56.833Z,23.47
2019-05-19T18:15:24.794Z,16.30
2019-05-19T18:17:51.583Z,22.67
2019-05-19T18:20:23.640Z,23.50
2019-05-19T18:22:47.190Z,23.30
2019-05-19T18:25:13.989Z,27.33
2019-05-19T18:27:41.078Z,23.20
2019-05-19T18:30:08.143Z,23.97
2019-05-19T18:32:34.818Z,19.67
2019-05-19T18:35:01.691Z,19.50
2019-05-19T18:37:28.348Z,19.37
2019-05-19T18:39:55.015Z,19.27
2019-05-19T18:42:21.804Z,19.70
2019-05-19T18:44:51.794Z,22.60
2019-05-19T18:47:21.085Z,18.93
2019-05-19T18:49:48.216Z,19.80
2019-05-19T18:52:15.305Z,31.47
2019-05-19T18:54:42.073Z,25.33
2019-05-19T18:57:08.811Z,54.73
2019-05-19T18:59:47.051Z,23.10
2019-05-19T19:02:04.402Z,41.47
2019-05-19T19:04:31.301Z,38.90
2019-05-19T19:06:58.295Z,32.87
2019-05-19T19:09:24.981Z,21.50
2019-05-19T19:11:51.700Z,25.20
2019-05-19T19:14:18.505Z,18.67
2019-05-19T19:16:45.196Z,38.87
2019-05-19T19:19:11.859Z,27.30
2019-05-19T19:21:38.543Z,48.07
2019-05-19T19:24:05.318Z,46.93
2019-05-19T19:26:32.453Z,51.57
2019-05-19T19:28:59.157Z,32.47
2019-05-19T19:31:25.928Z,38.47
2019-05-19T19:33:52.740Z,48.00
2019-05-19T19:36:20.498Z,42.30
2019-05-19T19:38:47.343Z,85.50
2019-05-19T19:41:15.336Z,35.40
2019-05-19T19:43:41.998Z,34.60
2019-05-19T19:46:08.690Z,52.03
2019-05-19T19:48:35.474Z,109.10
2019-05-19T19:51:02.241Z,69.07
2019-05-19T19:53:29.022Z,70.20
2019-05-19T19:55:55.852Z,80.63
2019-05-19T19:58:22.676Z,97.37
2019-05-19T20:00:49.522Z,75.67
2019-05-19T20:03:16.538Z,98.00
2019-05-19T20:05:45.639Z,92.60
2019-05-19T20:08:12.541Z,48.83
2019-05-19T20:10:39.345Z,50.77
2019-05-19T20:13:06.019Z,39.37
2019-05-19T20:15:33.259Z,36.00
2019-05-19T20:18:00.236Z,28.20
2019-05-19T20:20:27.011Z,33.30
2019-05-19T20:22:54.990Z,32.07
2019-05-19T20:25:23.943Z,32.50
2019-05-19T20:27:50.891Z,43.10
2019-05-19T20:30:33.632Z,27.97
2019-05-19T20:32:46.271Z,30.23
2019-05-19T20:35:13.173Z,32.40
2019-05-19T20:38:02.602Z,28.20
2019-05-19T20:40:29.383Z,29.53
2019-05-19T20:42:56.935Z,34.77
2019-05-19T20:45:23.970Z,70.03
2019-05-19T20:47:50.998Z,37.13
2019-05-19T20:50:17.865Z,53.13
2019-05-19T20:52:44.533Z,47.40
2019-05-19T20:55:11.418Z,45.10
2019-05-19T20:57:38.117Z,47.87
2019-05-19T21:00:05.994Z,59.63
2019-05-19T21:02:33.187Z,48.10
2019-05-19T21:04:59.849Z,75.40
2019-05-19T21:07:26.538Z,52.73
2019-05-19T21:09:55.649Z,48.43
2019-05-19T21:12:22.442Z,48.13
2019-05-19T21:14:49.213Z,39.67
2019-05-19T21:17:15.892Z,51.83
2019-05-19T21:19:44.670Z,42.07
2019-05-19T21:22:11.446Z,41.00
2019-05-19T21:24:38.169Z,70.93
2019-05-19T21:27:04.885Z,59.33
2019-05-19T21:29:31.547Z,54.37
2019-05-19T21:31:58.320Z,96.43
2019-05-19T21:34:25.041Z,88.23
2019-05-19T21:36:51.740Z,53.73
2019-05-19T21:39:18.410Z,47.57
2019-05-19T21:42:08.326Z,55.13
2019-05-19T21:44:35.048Z,40.60
2019-05-19T21:47:01.690Z,45.50
2019-05-19T21:49:28.361Z,47.47
2019-05-19T21:51:55.075Z,50.90
2019-05-19T21:54:21.845Z,40.33
2019-05-19T21:56:48.514Z,42.10
2019-05-19T21:59:17.204Z,56.93
2019-05-19T22:01:44.418Z,44.43
2019-05-19T22:04:11.494Z,43.30
2019-05-19T22:06:40.212Z,41.23
2019-05-19T22:09:07.270Z,38.83
2019-05-19T22:11:34.357Z,41.30
2019-05-19T22:14:01.041Z,42.60
2019-05-19T22:16:30.077Z,42.77
2019-05-19T22:18:56.894Z,42.00
2019-05-19T22:21:23.628Z,44.30
2019-05-19T22:23:50.336Z,49.20
2019-05-19T22:26:19.163Z,45.97
2019-05-19T22:28:46.031Z,47.43
2019-05-19T22:31:13.808Z,45.57
2019-05-19T22:33:40.520Z,46.50
2019-05-19T22:36:09.500Z,51.57
2019-05-19T22:38:36.649Z,48.80
2019-05-19T22:41:03.572Z,47.80
2019-05-19T22:43:30.246Z,57.60
2019-05-19T22:45:56.931Z,75.90
2019-05-19T22:48:23.611Z,71.40
2019-05-19T22:50:50.299Z,101.53
2019-05-19T22:53:17.009Z,70.00
2019-05-19T22:55:43.768Z,61.03
2019-05-19T22:58:10.437Z,58.50
2019-05-19T23:00:37.233Z,62.53
2019-05-19T23:03:03.914Z,59.70
2019-05-19T23:05:30.694Z,61.67
2019-05-19T23:07:57.837Z,58.97
2019-05-19T23:10:24.724Z,61.47
2019-05-19T23:12:51.410Z,59.67
2019-05-19T23:15:19.141Z,61.27
2019-05-19T23:17:45.925Z,72.37
2019-05-19T23:20:13.658Z,61.73
2019-05-19T23:22:40.463Z,61.90
2019-05-19T23:25:07.335Z,70.30
2019-05-19T23:27:34.102Z,65.97
2019-05-19T23:30:00.826Z,71.37
2019-05-19T23:32:27.573Z,72.80
2019-05-19T23:34:54.356Z,54.07
2019-05-19T23:37:21.222Z,57.20
2019-05-19T23:39:48.005Z,60.63
2019-05-19T23:42:14.696Z,61.40
2019-05-19T23:44:41.441Z,61.70
2019-05-19T23:47:08.234Z,55.17
2019-05-19T23:49:34.926Z,58.00
2019-05-19T23:52:01.574Z,53.17
2019-05-19T23:54:28.261Z,67.73
2019-05-19T23:56:54.938Z,51.73
2019-05-19T23:59:22.052Z,46.53
